sensor_id;sensor_type;location;lat;lon;timestamp;pressure;altitude;pressure_sealevel;temperature;humidity
47220;BME280;32961;51.936;4.788;2023-01-29T12:26:29;102536.53;;;4.33;84.53
47220;BME280;32961;51.936;4.788;2023-01-29T13:05:44;102422.00;;;4.69;83.44
47220;BME280;32961;51.936;4.788;2023-01-29T13:08:16;102413.75;;;4.72;83.62
47220;BME280;32961;51.936;4.788;2023-01-29T13:10:48;102421.56;;;4.78;84.04
47220;BME280;32961;51.936;4.788;2023-01-29T13:13:26;102413.56;;;4.76;83.61
47220;BME280;32961;51.936;4.788;2023-01-29T13:15:58;102404.47;;;4.79;83.69
47220;BME280;32961;51.936;4.788;2023-01-29T13:18:40;102387.56;;;4.75;83.31
47220;BME280;32961;51.936;4.788;2023-01-29T13:21:26;102388.19;;;4.82;83.64
47220;BME280;32961;51.936;4.788;2023-01-29T14:26:53;102315.06;;;5.10;82.56
47220;BME280;32961;51.936;4.788;2023-01-29T14:43:23;102311.34;;;5.13;82.92
47220;BME280;32961;51.936;4.788;2023-01-29T14:52:16;102302.91;;;5.02;83.25
47220;BME280;32961;51.936;4.788;2023-01-29T14:54:54;102296.97;;;4.93;82.88
47220;BME280;32961;51.936;4.788;2023-01-29T14:57:37;102299.47;;;4.98;83.31
47220;BME280;32961;51.936;4.788;2023-01-29T15:02:42;102274.91;;;4.85;82.90
47220;BME280;32961;51.936;4.788;2023-01-29T15:05:23;102287.44;;;4.86;83.31
47220;BME280;32961;51.936;4.788;2023-01-29T15:08:13;102283.88;;;4.86;83.31
47220;BME280;32961;51.936;4.788;2023-01-29T15:11:03;102282.25;;;4.81;83.52
47220;BME280;32961;51.936;4.788;2023-01-29T15:13:59;102278.63;;;4.82;84.02
47220;BME280;32961;51.936;4.788;2023-01-29T15:16:41;102273.41;;;4.79;84.14
47220;BME280;32961;51.936;4.788;2023-01-29T15:19:28;102282.25;;;4.81;84.06
47220;BME280;32961;51.936;4.788;2023-01-29T15:22:03;102256.56;;;4.74;84.00
47220;BME280;32961;51.936;4.788;2023-01-29T15:24:40;102272.72;;;4.74;84.66
47220;BME280;32961;51.936;4.788;2023-01-29T15:27:14;102279.13;;;4.72;84.81
47220;BME280;32961;51.936;4.788;2023-01-29T15:29:52;102258.81;;;4.64;84.26
47220;BME280;32961;51.936;4.788;2023-01-29T15:32:29;102266.69;;;4.69;84.76
47220;BME280;32961;51.936;4.788;2023-01-29T15:35:00;102251.41;;;4.70;85.12
47220;BME280;32961;51.936;4.788;2023-01-29T15:37:34;102250.41;;;4.72;85.01
47220;BME280;32961;51.936;4.788;2023-01-29T15:40:05;102260.72;;;4.62;85.74
47220;BME280;32961;51.936;4.788;2023-01-29T15:42:43;102258.97;;;4.61;86.37
47220;BME280;32961;51.936;4.788;2023-01-29T15:45:21;102255.63;;;4.56;87.58
47220;BME280;32961;51.936;4.788;2023-01-29T15:47:57;102255.47;;;4.59;87.89
47220;BME280;32961;51.936;4.788;2023-01-29T15:50:30;102243.84;;;4.59;88.11
47220;BME280;32961;51.936;4.788;2023-01-29T15:53:00;102247.75;;;4.52;88.78
47220;BME280;32961;51.936;4.788;2023-01-29T15:55:34;102260.13;;;4.56;88.81
47220;BME280;32961;51.936;4.788;2023-01-29T15:58:13;102244.25;;;4.49;89.65
47220;BME280;32961;51.936;4.788;2023-01-29T16:04:32;102252.53;;;4.45;90.41
47220;BME280;32961;51.936;4.788;2023-01-29T16:07:26;102256.16;;;4.44;89.77
47220;BME280;32961;51.936;4.788;2023-01-29T16:12:53;102254.44;;;4.43;90.97
47220;BME280;32961;51.936;4.788;2023-01-29T16:15:30;102249.34;;;4.37;90.25
47220;BME280;32961;51.936;4.788;2023-01-29T16:18:18;102255.44;;;4.40;90.68
47220;BME280;32961;51.936;4.788;2023-01-29T16:20:53;102255.50;;;4.39;90.71
47220;BME280;32961;51.936;4.788;2023-01-29T16:23:25;102256.59;;;4.34;90.60
47220;BME280;32961;51.936;4.788;2023-01-29T16:26:04;102258.00;;;4.43;90.26
47220;BME280;32961;51.936;4.788;2023-01-29T16:28:39;102266.34;;;4.37;90.12
47220;BME280;32961;51.936;4.788;2023-01-29T16:31:09;102263.66;;;4.37;90.13
47220;BME280;32961;51.936;4.788;2023-01-29T16:33:44;102246.75;;;4.33;90.36
47220;BME280;32961;51.936;4.788;2023-01-29T16:36:16;102253.97;;;4.33;89.99
47220;BME280;32961;51.936;4.788;2023-01-29T16:38:54;102236.94;;;4.32;89.95
47220;BME280;32961;51.936;4.788;2023-01-29T16:41:29;102242.19;;;4.36;89.90
47220;BME280;32961;51.936;4.788;2023-01-29T16:43:59;102232.38;;;4.34;89.72
47220;BME280;32961;51.936;4.788;2023-01-29T16:46:36;102230.41;;;4.38;89.59
47220;BME280;32961;51.936;4.788;2023-01-29T17:17:42;102211.94;;;4.30;89.16
47220;BME280;32961;51.936;4.788;2023-01-29T17:21:23;102204.66;;;4.32;88.69
47220;BME280;32961;51.936;4.788;2023-01-29T17:27:34;102186.63;;;4.34;88.94
47220;BME280;32961;51.936;4.788;2023-01-29T17:30:15;102177.16;;;4.26;88.66
47220;BME280;32961;51.936;4.788;2023-01-29T17:32:55;102173.47;;;4.28;89.25
47220;BME280;32961;51.936;4.788;2023-01-29T17:35:38;102183.41;;;4.26;89.24
47220;BME280;32961;51.936;4.788;2023-01-29T17:38:10;102176.50;;;4.21;89.38
47220;BME280;32961;51.936;4.788;2023-01-29T17:40:58;102187.03;;;4.25;89.16
47220;BME280;32961;51.936;4.788;2023-01-29T17:43:31;102171.91;;;4.23;89.53
